Time;durP1;ratioP1;P1;durP2;ratioP2;P2;SDS_P1;SDS_P2;PMS_P1;PMS_P2;Temp;Humidity;BMP_temperature;BMP_pressure;BME280_temperature;BME280_humidity;BME280_pressure;Samples;Min_cycle;Max_cycle;Signal;HPM_P1;HPM_P2
2024/02/02 00:00:22;;;;;;;14.00;4.40;;;;;;;3.72;66.64;97863.80;104589;1264;101502;-76
2024/02/02 00:03:33;;;;;;;15.40;5.30;;;;;;;3.73;66.58;97867.33;104480;1265;101364;-77
2024/02/02 00:06:04;;;;;;;17.70;5.30;;;;;;;3.71;66.46;97863.38;104518;1281;97845;-76
2024/02/02 00:09:00;;;;;;;16.20;4.30;;;;;;;3.72;66.45;97859.74;104531;1262;98046;-76
2024/02/02 00:11:28;;;;;;;17.00;4.30;;;;;;;3.73;66.44;97868.56;104538;1265;103838;-76
2024/02/02 00:14:36;;;;;;;19.90;5.40;;;;;;;3.74;66.35;97867.53;104549;1263;101350;-78
2024/02/02 00:17:10;;;;;;;12.90;3.90;;;;;;;3.75;66.24;97863.19;104494;1270;99703;-75
2024/02/02 00:20:18;;;;;;;14.10;4.90;;;;;;;3.74;66.23;97865.36;104549;1270;97849;-77
2024/02/02 00:23:21;;;;;;;15.50;4.00;;;;;;;3.76;66.20;97865.50;104556;1263;98379;-76
2024/02/02 00:26:30;;;;;;;17.20;5.20;;;;;;;3.78;66.15;97863.88;104492;1265;103787;-87
2024/02/02 00:29:40;;;;;;;18.60;5.10;;;;;;;3.77;66.15;97864.48;104542;1259;101374;-87
2024/02/02 00:32:48;;;;;;;15.20;4.30;;;;;;;3.77;66.11;97866.66;104563;1265;98858;-87
2024/02/02 00:35:16;;;;;;;19.10;4.80;;;;;;;3.75;66.14;97868.63;104514;1265;98847;-87
2024/02/02 00:38:14;;;;;;;19.40;4.90;;;;;;;3.76;66.21;97869.43;104603;1265;98432;-88
2024/02/02 00:41:23;;;;;;;13.50;4.60;;;;;;;3.76;66.20;97866.92;104521;1278;103612;-85
2024/02/02 00:44:24;;;;;;;15.70;4.80;;;;;;;3.75;66.14;97867.59;104540;1263;101423;-76
2024/02/02 00:46:59;;;;;;;19.10;4.60;;;;;;;3.74;66.21;97873.58;104460;1265;99731;-76
2024/02/02 00:49:45;;;;;;;17.50;4.60;;;;;;;3.73;66.56;97881.19;104345;1266;98033;-77
2024/02/02 00:52:17;;;;;;;17.00;4.00;;;;;;;3.68;67.00;97878.80;104509;1260;99269;-76
2024/02/02 00:54:45;;;;;;;13.20;3.30;;;;;;;3.65;67.28;97876.46;104508;1262;110633;-77
2024/02/02 00:57:16;;;;;;;15.20;4.70;;;;;;;3.62;67.53;97874.96;104515;1263;101520;-76
2024/02/02 00:59:50;;;;;;;17.40;4.70;;;;;;;3.59;67.58;97865.37;104480;1265;99934;-81
2024/02/02 01:02:41;;;;;;;16.90;4.80;;;;;;;3.53;67.81;97868.21;104526;1260;98427;-89
2024/02/02 01:05:09;;;;;;;15.20;4.10;;;;;;;3.50;67.69;97873.60;104460;1262;99509;-76
2024/02/02 01:08:07;;;;;;;15.10;4.40;;;;;;;3.50;67.73;97876.95;104562;1260;103217;-78
2024/02/02 01:11:19;;;;;;;14.50;4.80;;;;;;;3.49;67.51;97870.94;104439;1265;101676;-77
2024/02/02 01:14:27;;;;;;;15.50;5.20;;;;;;;3.50;67.51;97875.16;104074;1277;100483;-78
2024/02/02 01:17:17;;;;;;;19.70;4.30;;;;;;;3.46;67.29;97872.57;104109;1271;99353;-79
2024/02/02 01:20:13;;;;;;;15.00;4.10;;;;;;;3.46;67.30;97869.37;104118;1270;98470;-78
2024/02/02 01:23:09;;;;;;;17.20;4.00;;;;;;;3.47;67.14;97867.45;103704;1271;102442;-77
2024/02/02 01:25:43;;;;;;;21.60;4.60;;;;;;;3.49;66.98;97870.34;103623;1287;101448;-77
2024/02/02 01:28:24;;;;;;;15.30;4.60;;;;;;;3.50;66.89;97873.02;103671;1288;99932;-76
2024/02/02 01:31:12;;;;;;;10.90;3.90;;;;;;;3.51;66.83;97871.66;103680;1293;99000;-76
2024/02/02 01:34:22;;;;;;;16.60;4.90;;;;;;;3.52;66.80;97875.45;103666;1287;98666;-76
2024/02/02 01:37:30;;;;;;;12.10;3.90;;;;;;;3.53;66.54;97879.83;103453;1271;103787;-79
2024/02/02 01:40:27;;;;;;;15.80;4.40;;;;;;;3.52;66.54;97879.41;103597;1276;101655;-89
2024/02/02 01:42:58;;;;;;;17.40;4.40;;;;;;;3.52;66.67;97876.17;103643;1272;100171;-76
2024/02/02 01:46:06;;;;;;;11.70;4.30;;;;;;;3.53;66.56;97875.02;103664;1273;98113;-76
2024/02/02 01:48:41;;;;;;;17.40;4.90;;;;;;;3.52;66.45;97878.81;103671;1288;98434;-76
2024/02/02 01:51:49;;;;;;;15.10;4.40;;;;;;;3.52;66.57;97881.88;103852;1275;102488;-74
2024/02/02 01:54:57;;;;;;;15.00;4.40;;;;;;;3.51;66.48;97874.33;104194;1271;101377;-74
2024/02/02 01:57:48;;;;;;;14.80;4.20;;;;;;;3.52;66.54;97870.00;104096;1271;101490;-76
2024/02/02 02:00:37;;;;;;;15.90;4.70;;;;;;;3.52;66.45;97868.00;104347;1262;98874;-75
2024/02/02 02:03:28;;;;;;;19.90;4.30;;;;;;;3.51;66.45;97865.23;104557;1262;98456;-87
2024/02/02 02:06:27;;;;;;;14.10;4.70;;;;;;;3.52;66.49;97875.50;104699;1264;103567;-87
2024/02/02 02:09:34;;;;;;;16.30;5.20;;;;;;;3.54;66.47;97870.69;104532;1265;100559;-85
2024/02/02 02:12:03;;;;;;;15.50;4.10;;;;;;;3.53;66.38;97869.17;104577;1272;99936;-86
2024/02/02 02:14:41;;;;;;;16.30;4.30;;;;;;;3.50;66.46;97865.38;104544;1271;98943;-85
2024/02/02 02:17:42;;;;;;;12.60;3.90;;;;;;;3.50;66.56;97863.27;104530;1264;98442;-79
2024/02/02 02:20:26;;;;;;;16.90;5.20;;;;;;;3.48;66.57;97864.16;104497;1262;103908;-88
2024/02/02 02:23:35;;;;;;;12.50;4.60;;;;;;;3.48;66.63;97866.99;104562;1262;101577;-86
2024/02/02 02:26:14;;;;;;;16.90;5.10;;;;;;;3.48;66.67;97863.25;104552;1266;100535;-86
2024/02/02 02:28:50;;;;;;;18.60;5.20;;;;;;;3.47;66.62;97859.07;104541;1265;98950;-86
2024/02/02 02:31:45;;;;;;;14.10;5.20;;;;;;;3.46;66.64;97861.14;104659;1259;98384;-78
2024/02/02 02:34:42;;;;;;;18.30;5.30;;;;;;;3.45;66.75;97863.96;104496;1265;103119;-77
2024/02/02 02:37:50;;;;;;;16.40;5.10;;;;;;;3.44;66.78;97858.04;104430;1262;101396;-77
2024/02/02 02:40:39;;;;;;;16.50;4.70;;;;;;;3.43;66.85;97860.09;104534;1263;99343;-78
2024/02/02 02:43:30;;;;;;;14.80;4.80;;;;;;;3.43;66.81;97860.60;104469;1258;97938;-77
2024/02/02 02:46:23;;;;;;;15.30;4.30;;;;;;;3.42;66.76;97862.86;104642;1273;98425;-76
2024/02/02 02:49:14;;;;;;;15.70;5.20;;;;;;;3.40;66.86;97871.58;104508;1263;103627;-77
2024/02/02 02:51:45;;;;;;;17.20;4.30;;;;;;;3.38;66.99;97872.48;104574;1262;101338;-77
2024/02/02 02:54:33;;;;;;;19.40;5.40;;;;;;;3.37;66.99;97869.91;104489;1264;99993;-77
2024/02/02 02:57:08;;;;;;;21.50;4.60;;;;;;;3.38;67.00;97867.38;104532;1262;97917;-77
2024/02/02 02:59:57;;;;;;;21.60;4.70;;;;;;;3.38;67.09;97869.80;104500;1265;98451;-77
2024/02/02 03:02:40;;;;;;;19.50;4.80;;;;;;;3.38;67.07;97874.77;104516;1271;103743;-86
2024/02/02 03:05:49;;;;;;;17.10;4.60;;;;;;;3.37;66.95;97880.77;104562;1263;101746;-86
2024/02/02 03:08:47;;;;;;;18.10;4.70;;;;;;;3.32;67.05;97884.50;104512;1263;99117;-87
2024/02/02 03:11:19;;;;;;;22.80;5.50;;;;;;;3.29;67.17;97879.94;104480;1269;97913;-87
2024/02/02 03:14:13;;;;;;;16.50;4.90;;;;;;;3.29;67.10;97881.00;104537;1259;98427;-89
2024/02/02 03:16:43;;;;;;;21.60;5.80;;;;;;;3.29;67.04;97881.77;104461;1276;103647;-74
2024/02/02 03:19:17;;;;;;;15.90;5.80;;;;;;;3.26;67.13;97884.31;104555;1263;100149;-86
2024/02/02 03:21:45;;;;;;;13.40;4.80;;;;;;;3.27;67.28;97881.41;104513;1273;100056;-88
2024/02/02 03:24:22;;;;;;;15.50;4.20;;;;;;;3.25;67.36;97884.02;104554;1262;98778;-86
2024/02/02 03:26:59;;;;;;;17.60;5.10;;;;;;;3.26;67.39;97889.31;104538;1263;98454;-85
2024/02/02 03:29:37;;;;;;;22.10;5.10;;;;;;;3.26;67.27;97884.72;104515;1262;103614;-87
2024/02/02 03:32:11;;;;;;;18.30;5.30;;;;;;;3.24;67.13;97889.55;104552;1262;101203;-76
2024/02/02 03:35:05;;;;;;;17.40;4.60;;;;;;;3.25;67.22;97893.31;104581;1265;99626;-75
2024/02/02 03:37:35;;;;;;;18.70;5.30;;;;;;;3.26;67.20;97891.78;104530;1273;99141;-86
2024/02/02 03:40:04;;;;;;;13.30;4.20;;;;;;;3.25;67.15;97892.59;104558;1271;98557;-87
2024/02/02 03:43:04;;;;;;;19.30;4.90;;;;;;;3.26;67.23;97890.52;104618;1273;104018;-87
2024/02/02 03:45:38;;;;;;;17.70;5.30;;;;;;;3.26;67.13;97893.59;104531;1273;100593;-75
2024/02/02 03:48:09;;;;;;;16.00;5.40;;;;;;;3.20;67.10;97894.68;104497;1261;98754;-77
2024/02/02 03:50:56;;;;;;;14.70;5.10;;;;;;;3.17;67.14;97896.58;104566;1264;99271;-76
2024/02/02 03:53:44;;;;;;;17.30;5.00;;;;;;;3.16;67.09;97898.49;104519;1261;98485;-86
2024/02/02 03:56:32;;;;;;;14.90;5.00;;;;;;;3.14;67.02;97900.48;104538;1270;102792;-77
2024/02/02 03:59:00;;;;;;;23.20;5.80;;;;;;;3.15;67.11;97901.48;104514;1264;101275;-79
2024/02/02 04:01:51;;;;;;;19.50;5.40;;;;;;;3.15;67.11;97905.72;104540;1262;100013;-86
2024/02/02 04:04:22;;;;;;;13.90;4.70;;;;;;;3.14;67.04;97906.02;104527;1264;97899;-87
2024/02/02 04:07:31;;;;;;;16.10;5.10;;;;;;;3.14;67.15;97904.75;104557;1262;99573;-86
2024/02/02 04:10:39;;;;;;;16.90;4.90;;;;;;;3.15;67.07;97911.25;104508;1273;103826;-85
2024/02/02 04:13:47;;;;;;;23.60;5.00;;;;;;;3.18;67.23;97915.22;104556;1262;101375;-86
2024/02/02 04:16:31;;;;;;;18.10;5.30;;;;;;;3.18;67.17;97914.46;104554;1273;100190;-86
2024/02/02 04:19:14;;;;;;;14.60;5.40;;;;;;;3.15;67.19;97913.50;104507;1263;97925;-77
2024/02/02 04:22:10;;;;;;;24.90;5.70;;;;;;;3.14;67.23;97907.21;104511;1262;98367;-77
2024/02/02 04:25:08;;;;;;;12.40;4.80;;;;;;;3.14;67.26;97908.95;104524;1271;104274;-76
2024/02/02 04:27:37;;;;;;;12.00;4.50;;;;;;;3.16;67.15;97909.86;104544;1260;101383;-78
2024/02/02 04:30:45;;;;;;;14.30;5.10;;;;;;;3.15;67.06;97915.27;104562;1260;100030;-76
2024/02/02 04:33:52;;;;;;;15.50;5.60;;;;;;;3.14;67.03;97917.92;104544;1265;97864;-78
2024/02/02 04:37:00;;;;;;;17.60;5.90;;;;;;;3.13;67.31;97922.60;104671;1262;98456;-79
2024/02/02 04:39:50;;;;;;;11.60;5.10;;;;;;;3.15;67.32;97927.06;104518;1273;103718;-76
2024/02/02 04:42:59;;;;;;;20.00;5.90;;;;;;;3.18;67.30;97930.99;104502;1260;99496;-76
2024/02/02 04:45:29;;;;;;;15.20;5.50;;;;;;;3.17;67.17;97935.59;104524;1259;100159;-74
2024/02/02 04:48:17;;;;;;;24.10;5.60;;;;;;;3.16;67.14;97939.91;104547;1265;98441;-75
2024/02/02 04:51:16;;;;;;;23.20;6.00;;;;;;;3.16;67.07;97933.71;104538;1271;98752;-74
2024/02/02 04:54:24;;;;;;;16.00;5.60;;;;;;;3.13;67.17;97934.73;104571;1262;103245;-76
2024/02/02 04:57:12;;;;;;;23.90;6.70;;;;;;;3.12;67.23;97937.00;104466;1259;101889;-75
2024/02/02 05:00:21;;;;;;;16.50;6.60;;;;;;;3.10;67.31;97934.36;104502;1264;100041;-76
2024/02/02 05:03:22;;;;;;;14.90;5.20;;;;;;;3.09;67.29;97939.45;104513;1264;97922;-77
2024/02/02 05:06:19;;;;;;;17.60;5.20;;;;;;;3.09;67.30;97944.05;104342;1277;98505;-78
2024/02/02 05:09:28;;;;;;;22.60;6.80;;;;;;;3.09;67.32;97949.55;104526;1265;103766;-77
2024/02/02 05:12:26;;;;;;;17.40;6.60;;;;;;;3.07;67.35;97951.30;104444;1273;101209;-77
2024/02/02 05:15:35;;;;;;;18.90;6.30;;;;;;;3.00;67.42;97957.88;104413;1263;100222;-78
2024/02/02 05:18:07;;;;;;;18.90;6.70;;;;;;;3.01;67.55;97968.16;100554;1260;5398785;-74
2024/02/02 05:20:58;;;;;;;15.50;6.50;;;;;;;3.03;67.50;97973.62;104492;1271;103710;-74
2024/02/02 05:23:31;;;;;;;14.60;6.70;;;;;;;3.02;67.46;97974.08;104513;1277;101360;-74
2024/02/02 05:26:26;;;;;;;22.70;6.80;;;;;;;3.01;67.41;97973.98;104501;1271;99272;-74
2024/02/02 05:29:37;;;;;;;14.70;6.90;;;;;;;2.97;67.51;97974.23;104508;1273;98017;-75
2024/02/02 05:32:35;;;;;;;15.40;5.80;;;;;;;2.91;67.44;97973.16;104539;1271;98380;-78
2024/02/02 05:35:24;;;;;;;15.70;6.20;;;;;;;2.90;67.46;97975.77;104543;1262;103628;-77
2024/02/02 05:38:05;;;;;;;15.60;5.90;;;;;;;2.89;67.52;97976.08;104535;1266;102054;-75
2024/02/02 05:41:13;;;;;;;21.50;7.50;;;;;;;2.86;67.49;97975.05;104477;1263;99604;-78
2024/02/02 05:44:21;;;;;;;16.00;6.10;;;;;;;2.83;67.29;97979.98;104458;1274;98005;-77
2024/02/02 05:47:20;;;;;;;18.90;6.20;;;;;;;2.81;67.25;97982.12;104504;1262;98418;-77
2024/02/02 05:49:53;;;;;;;20.40;8.40;;;;;;;2.81;67.27;97984.30;104523;1271;102743;-76
2024/02/02 05:52:28;;;;;;;19.50;9.10;;;;;;;2.78;67.33;97989.55;104547;1264;101521;-77
2024/02/02 05:55:07;;;;;;;27.00;13.10;;;;;;;2.76;67.29;97989.79;104539;1273;99611;-77
2024/02/02 05:57:47;;;;;;;23.20;13.70;;;;;;;2.76;67.37;97993.53;104510;1262;97935;-75
2024/02/02 06:00:19;;;;;;;17.50;7.70;;;;;;;2.78;67.54;97995.24;104493;1262;98838;-76
2024/02/02 06:03:27;;;;;;;17.90;7.20;;;;;;;2.81;67.62;97997.05;104509;1272;103736;-76
2024/02/02 06:06:26;;;;;;;16.80;6.20;;;;;;;2.81;67.49;97997.98;104554;1262;101635;-78
2024/02/02 06:09:05;;;;;;;17.50;6.00;;;;;;;2.81;67.39;97995.28;104456;1260;100103;-77
2024/02/02 06:12:13;;;;;;;19.10;6.20;;;;;;;2.83;67.34;97996.73;104495;1261;98050;-77
2024/02/02 06:14:50;;;;;;;25.80;10.60;;;;;;;2.85;67.38;98001.20;104453;1275;98383;-76
2024/02/02 06:17:38;;;;;;;29.90;12.50;;;;;;;2.87;67.44;98000.45;104539;1270;103646;-76
2024/02/02 06:20:18;;;;;;;19.80;10.70;;;;;;;2.88;67.51;98003.94;104523;1266;101493;-76
2024/02/02 06:23:12;;;;;;;31.90;17.00;;;;;;;2.89;67.50;98002.84;104532;1273;100053;-77
2024/02/02 06:26:20;;;;;;;21.10;10.20;;;;;;;2.90;67.52;98005.44;104508;1269;99610;-76
2024/02/02 06:29:04;;;;;;;19.70;7.80;;;;;;;2.89;67.55;98005.61;104551;1271;99173;-86
2024/02/02 06:32:13;;;;;;;20.10;6.40;;;;;;;2.88;67.60;98004.75;104584;1280;103869;-88
2024/02/02 06:35:21;;;;;;;16.50;6.30;;;;;;;2.88;67.58;98000.90;104536;1270;101388;-87
2024/02/02 06:37:49;;;;;;;19.20;7.70;;;;;;;2.87;67.72;97998.16;104467;1262;100028;-86
2024/02/02 06:40:57;;;;;;;18.30;7.00;;;;;;;2.88;67.81;97994.61;104514;1257;97922;-90
2024/02/02 06:43:27;;;;;;;21.40;8.40;;;;;;;2.91;67.82;97992.19;104560;1265;99618;-86
2024/02/02 06:45:58;;;;;;;18.40;8.50;;;;;;;2.92;67.82;97990.84;104527;1274;103764;-76
2024/02/02 06:48:30;;;;;;;17.70;6.80;;;;;;;2.95;67.93;97986.00;104545;1273;101798;-89
2024/02/02 06:51:09;;;;;;;20.80;7.60;;;;;;;2.94;68.03;97985.66;104510;1271;99956;-75
2024/02/02 06:53:45;;;;;;;18.40;6.30;;;;;;;2.93;68.03;97992.34;104546;1264;97996;-74
2024/02/02 06:57:12;;;;;;;17.00;8.00;;;;;;;2.94;68.19;97994.23;104509;1271;98398;-76
2024/02/02 07:00:02;;;;;;;20.90;7.30;;;;;;;2.93;68.27;97998.30;104021;1280;103777;-75
2024/02/02 07:02:38;;;;;;;24.90;11.80;;;;;;;2.93;68.33;98000.77;103937;1281;100552;-76
2024/02/02 07:05:10;;;;;;;23.70;13.20;;;;;;;2.92;68.51;98002.96;104025;1278;100203;-75
2024/02/02 07:08:18;;;;;;;28.20;14.20;;;;;;;2.92;68.72;98004.04;104022;1280;98118;-75
2024/02/02 07:11:32;;;;;;;30.10;15.10;;;;;;;2.91;68.77;98001.82;103985;1278;98537;-76
2024/02/02 07:14:20;;;;;;;17.80;9.20;;;;;;;2.92;69.06;98000.86;103336;1274;102806;-78
2024/02/02 07:17:29;;;;;;;24.80;9.10;;;;;;;2.90;69.07;98002.95;103378;1279;100464;-75
2024/02/02 07:20:19;;;;;;;21.10;8.40;;;;;;;2.91;69.13;98008.52;103318;1287;100208;-76
2024/02/02 07:23:10;;;;;;;19.60;7.90;;;;;;;2.94;69.28;98009.73;103033;1286;98954;-74
2024/02/02 07:26:19;;;;;;;23.20;8.20;;;;;;;2.95;69.43;98013.14;103391;1279;97959;-74
2024/02/02 07:29:07;;;;;;;16.90;7.70;;;;;;;2.98;69.46;98014.52;103424;1273;103807;-76
2024/02/02 07:31:48;;;;;;;18.30;8.10;;;;;;;3.08;69.81;98020.04;103903;1281;109241;-79
2024/02/02 07:34:42;;;;;;;21.30;7.60;;;;;;;3.10;69.46;98023.59;104121;1272;100077;-75
2024/02/02 07:37:56;;;;;;;21.90;8.20;;;;;;;3.08;69.35;98025.43;104026;1271;98640;-74
2024/02/02 07:41:07;;;;;;;22.50;11.70;;;;;;;3.05;69.41;98018.77;104019;1276;98398;-75
2024/02/02 07:43:56;;;;;;;26.80;9.50;;;;;;;3.07;69.66;98011.41;104122;1279;103917;-75
2024/02/02 07:46:44;;;;;;;22.30;10.00;;;;;;;3.10;69.57;98013.29;104086;1270;101351;-75
2024/02/02 07:49:53;;;;;;;28.30;12.30;;;;;;;3.13;69.57;98020.92;104123;1270;99852;-86
2024/02/02 07:53:01;;;;;;;22.20;8.60;;;;;;;3.16;69.45;98019.02;104487;1263;97935;-87
2024/02/02 07:55:29;;;;;;;22.70;8.20;;;;;;;3.19;69.27;98018.82;104557;1273;97962;-89
2024/02/02 07:58:04;;;;;;;22.40;8.30;;;;;;;3.18;69.08;98009.40;104559;1271;103654;-88
2024/02/02 08:00:33;;;;;;;21.90;8.70;;;;;;;3.19;69.20;98009.85;104564;1261;102704;-79
2024/02/02 08:03:31;;;;;;;26.10;7.80;;;;;;;3.24;69.17;98017.81;104523;1268;99970;-77
2024/02/02 08:06:23;;;;;;;15.00;7.00;;;;;;;3.29;69.14;98026.02;104311;1281;97931;-77
2024/02/02 08:09:18;;;;;;;17.10;7.30;;;;;;;3.31;69.11;98023.84;104519;1263;98358;-77
2024/02/02 08:12:17;;;;;;;17.50;6.50;;;;;;;3.34;68.85;98027.65;104528;1262;103584;-77
2024/02/02 08:14:51;;;;;;;24.40;9.80;;;;;;;3.34;68.57;98025.38;104512;1263;101411;-80
2024/02/02 08:17:42;;;;;;;29.10;8.90;;;;;;;3.33;68.53;98027.72;104492;1272;99796;-75
2024/02/02 08:20:34;;;;;;;25.00;7.20;;;;;;;3.36;68.54;98029.61;104606;1275;98142;-75
2024/02/02 08:23:42;;;;;;;22.60;6.70;;;;;;;3.36;68.45;98027.48;104579;1260;97955;-86
2024/02/02 08:26:14;;;;;;;15.10;6.70;;;;;;;3.35;68.51;98032.87;104468;1273;103687;-88
2024/02/02 08:29:12;;;;;;;18.80;6.90;;;;;;;3.36;68.51;98039.22;104559;1264;100406;-88
2024/02/02 08:32:00;;;;;;;20.70;7.60;;;;;;;3.34;68.33;98036.55;104516;1274;98775;-79
2024/02/02 08:35:08;;;;;;;17.70;6.90;;;;;;;3.33;68.24;98039.28;104473;1263;98005;-77
2024/02/02 08:38:00;;;;;;;17.30;6.50;;;;;;;3.31;68.33;98067.63;104532;1262;98447;-78
2024/02/02 08:41:04;;;;;;;22.10;5.20;;;;;;;3.13;69.35;98070.30;104499;1273;103680;-76
2024/02/02 08:43:39;;;;;;;19.40;5.60;;;;;;;2.71;70.15;98069.70;104509;1257;101678;-89
2024/02/02 08:46:09;;;;;;;23.60;5.30;;;;;;;2.46;70.38;98072.22;104527;1271;100164;-75
2024/02/02 08:48:48;;;;;;;25.50;6.10;;;;;;;2.40;70.56;98075.50;104555;1270;97919;-75
2024/02/02 08:52:04;;;;;;;19.50;5.80;;;;;;;2.35;70.77;98082.03;104603;1264;98484;-75
2024/02/02 08:54:53;;;;;;;20.10;5.40;;;;;;;2.31;70.87;98081.80;103932;1282;102944;-77
2024/02/02 08:57:34;;;;;;;19.10;5.90;;;;;;;2.33;70.94;98084.02;103947;1281;101488;-76
2024/02/02 09:00:14;;;;;;;24.10;6.60;;;;;;;2.37;71.12;98086.11;103910;1272;100112;-76
2024/02/02 09:03:17;;;;;;;23.30;6.70;;;;;;;2.36;71.21;98088.65;103964;1271;98033;-75
2024/02/02 09:06:19;;;;;;;30.10;8.10;;;;;;;2.34;71.27;98086.52;103986;1267;97914;-91
2024/02/02 09:09:11;;;;;;;26.80;6.80;;;;;;;2.32;71.36;98080.54;104098;1270;103888;-87
2024/02/02 09:11:39;;;;;;;;;;;;;;;2.30;71.49;98085.32;104046;1285;101583;-87
2024/02/02 09:14:50;;;;;;;24.90;7.70;;;;;;;2.26;71.61;98088.52;104176;1270;100160;-87
2024/02/02 09:17:58;;;;;;;22.70;6.40;;;;;;;2.29;71.53;98088.40;103936;1272;98753;-76
2024/02/02 09:21:13;;;;;;;23.80;7.20;;;;;;;2.36;71.48;98089.36;104086;1271;98589;-79
2024/02/02 09:24:21;;;;;;;31.20;8.20;;;;;;;2.41;71.39;98088.14;104027;1267;103713;-76
2024/02/02 09:27:27;;;;;;;23.80;8.90;;;;;;;2.45;71.34;98090.23;103942;1282;101555;-89
2024/02/02 09:30:39;;;;;;;24.10;9.10;;;;;;;2.53;71.38;98084.20;104002;1284;100064;-87
2024/02/02 09:33:53;;;;;;;23.20;11.30;;;;;;;2.63;71.43;98084.90;104366;1264;98299;-76
2024/02/02 09:36:53;;;;;;;26.30;8.80;;;;;;;2.71;71.46;98082.19;104397;1264;98529;-77
2024/02/02 09:39:26;;;;;;;31.70;10.60;;;;;;;2.76;71.30;98080.30;104459;1261;103760;-77
2024/02/02 09:42:14;;;;;;;32.90;17.10;;;;;;;2.80;71.25;98078.21;104546;1263;101388;-77
2024/02/02 09:45:21;;;;;;;24.00;12.60;;;;;;;2.85;71.20;98074.02;104512;1273;99028;-90
2024/02/02 09:48:38;;;;;;;28.60;9.60;;;;;;;2.95;71.18;98073.27;104438;1263;98055;-86
2024/02/02 09:51:52;;;;;;;27.20;9.80;;;;;;;3.00;70.76;98070.13;104439;1271;98428;-88
2024/02/02 09:54:48;;;;;;;21.00;7.70;;;;;;;3.01;70.34;98070.91;103985;1280;103891;-89
2024/02/02 09:58:04;;;;;;;23.60;6.90;;;;;;;3.02;69.48;98071.73;104070;1273;101636;-89
2024/02/02 10:01:10;;;;;;;27.70;8.50;;;;;;;3.05;69.39;98071.90;104040;1279;99272;-87
2024/02/02 10:04:26;;;;;;;30.20;11.80;;;;;;;3.07;69.04;98072.29;103456;1287;99319;-77
2024/02/02 10:07:36;;;;;;;30.80;14.00;;;;;;;3.10;68.44;98070.91;103105;1290;97936;-76
2024/02/02 10:10:48;;;;;;;17.80;6.00;;;;;;;3.14;68.35;98070.66;102245;1299;103694;-78
2024/02/02 10:14:02;;;;;;;15.00;3.60;;;;;;;3.13;67.36;98064.74;102214;1289;101510;-77
2024/02/02 10:33:12;;;;;;;23.90;7.10;;;;;;;3.36;66.95;98067.14;101800;1306;101308;-76
2024/02/02 10:36:40;;;;;;;25.40;6.30;;;;;;;3.41;66.73;98062.91;101988;1302;98171;-77
2024/02/02 10:40:04;;;;;;;21.80;6.20;;;;;;;3.45;66.23;98062.33;102038;1291;98502;-77
2024/02/02 10:42:50;;;;;;;22.20;5.40;;;;;;;3.49;65.97;98061.91;102796;1283;103775;-76
2024/02/02 10:46:10;;;;;;;16.90;5.00;;;;;;;3.50;65.45;98061.32;103217;1290;101913;-79
2024/02/02 10:49:04;;;;;;;23.80;6.90;;;;;;;3.49;65.32;98055.34;103334;1289;99985;-76
2024/02/02 10:52:18;;;;;;;25.20;5.80;;;;;;;3.50;65.21;98051.88;103511;1273;99658;-76
2024/02/02 10:55:15;;;;;;;18.10;5.30;;;;;;;3.52;65.21;98047.67;102959;1282;98440;-77
2024/02/02 10:58:38;;;;;;;13.40;4.30;;;;;;;3.55;65.11;98042.61;103391;1285;102518;-76
2024/02/02 11:01:58;;;;;;;15.80;5.80;;;;;;;3.60;64.94;98036.63;103282;1278;101473;-77
2024/02/02 11:05:18;;;;;;;18.90;5.60;;;;;;;3.65;64.84;98038.04;103140;1292;99137;-75
2024/02/02 11:08:36;;;;;;;21.20;5.90;;;;;;;3.71;64.34;98031.02;103156;1291;99291;-76
2024/02/02 11:11:58;;;;;;;20.50;6.90;;;;;;;3.74;62.61;98028.95;103140;1277;98388;-75
2024/02/02 11:14:58;;;;;;;21.10;4.90;;;;;;;3.75;62.99;98032.05;103187;1279;104012;-78
2024/02/02 11:21:51;;;;;;;14.20;4.40;;;;;;;3.95;63.34;98011.38;101482;1298;636439;-77
2024/02/02 11:24:28;;;;;;;25.20;5.90;;;;;;;4.03;62.77;98006.64;104020;1273;95923;-77
2024/02/02 11:27:45;;;;;;;15.40;4.50;;;;;;;4.13;62.67;98006.65;103962;1272;95870;-77
2024/02/02 11:30:49;;;;;;;18.00;5.80;;;;;;;4.20;62.28;98000.06;103845;1273;99618;-78
2024/02/02 11:33:46;;;;;;;19.90;5.20;;;;;;;4.23;61.89;97995.31;103981;1274;100130;-77
2024/02/02 11:36:43;;;;;;;24.60;6.10;;;;;;;4.23;61.65;97992.14;103843;1267;99832;-75
2024/02/02 11:39:25;;;;;;;21.70;5.70;;;;;;;4.29;62.07;97988.65;104094;1279;96769;-77
2024/02/02 11:42:04;;;;;;;34.10;13.50;;;;;;;4.43;62.11;97984.17;104646;1257;96169;-77
2024/02/02 11:45:12;;;;;;;16.40;6.60;;;;;;;4.49;61.76;97980.64;104615;1260;98718;-77
2024/02/02 11:48:24;;;;;;;27.60;8.00;;;;;;;4.56;61.38;97977.80;104656;1261;101084;-77
2024/02/02 11:50:53;;;;;;;17.30;5.40;;;;;;;4.62;61.28;97973.39;104555;1261;99977;-76
2024/02/02 11:53:33;;;;;;;21.00;5.20;;;;;;;4.70;60.94;97969.55;104567;1273;95851;-76
2024/02/02 11:56:06;;;;;;;24.00;8.30;;;;;;;4.81;60.86;97962.13;104637;1261;96828;-78
2024/02/02 11:58:40;;;;;;;24.70;8.00;;;;;;;4.99;60.91;97956.64;104631;1269;100831;-77
2024/02/02 12:01:57;;;;;;;18.80;6.10;;;;;;;5.20;60.83;97953.85;104711;1261;101359;-77
2024/02/02 12:05:14;;;;;;;20.30;6.40;;;;;;;5.33;60.07;97954.60;104559;1271;98752;-77
2024/02/02 12:08:04;;;;;;;20.80;5.80;;;;;;;5.30;59.62;97964.14;104556;1264;97205;-77
2024/02/02 12:11:02;;;;;;;19.40;5.60;;;;;;;5.24;59.11;97963.52;108300;1257;93504;-75
2024/02/02 12:13:58;;;;;;;19.80;6.40;;;;;;;5.10;58.47;97961.88;107105;1257;100592;-77
2024/02/02 12:16:56;;;;;;;15.80;5.50;;;;;;;5.02;57.95;97962.00;104637;1261;100426;-77
2024/02/02 12:19:24;;;;;;;14.30;5.40;;;;;;;4.95;58.50;97959.41;104570;1274;100276;-75
2024/02/02 12:21:53;;;;;;;14.30;5.10;;;;;;;4.93;58.38;97960.67;104598;1274;97192;-75
2024/02/02 12:24:21;;;;;;;19.10;5.00;;;;;;;4.87;58.30;97957.93;104625;1262;96792;-75
2024/02/02 12:26:49;;;;;;;19.80;5.00;;;;;;;4.85;58.33;97955.34;104559;1262;99923;-75
2024/02/02 12:29:18;;;;;;;18.60;4.80;;;;;;;4.85;58.23;97955.31;104593;1262;101611;-75
2024/02/02 12:31:45;;;;;;;17.30;5.20;;;;;;;4.82;58.21;97952.38;104562;1261;99813;-75
2024/02/02 12:34:14;;;;;;;15.50;4.60;;;;;;;4.86;58.51;97953.08;104550;1259;95856;-75
2024/02/02 12:36:42;;;;;;;21.40;5.70;;;;;;;4.90;58.16;97949.45;104639;1260;95830;-75
2024/02/02 12:39:10;;;;;;;17.70;4.90;;;;;;;4.90;58.14;97943.58;104746;1262;101042;-75
2024/02/02 12:41:37;;;;;;;16.20;4.90;;;;;;;4.92;58.07;97933.89;104666;1256;101413;-75
2024/02/02 12:44:07;;;;;;;19.70;5.30;;;;;;;4.94;57.94;97929.69;104761;1271;100090;-75
2024/02/02 12:46:45;;;;;;;21.40;5.10;;;;;;;4.96;57.96;97925.94;104736;1258;96660;-75
2024/02/02 12:49:13;;;;;;;16.20;4.50;;;;;;;5.14;58.25;97925.09;104734;1254;96780;-75
2024/02/02 12:51:40;;;;;;;14.30;4.90;;;;;;;5.34;58.23;97927.36;104790;1258;101359;-75
2024/02/02 12:54:10;;;;;;;20.10;4.90;;;;;;;5.59;57.99;97924.56;104676;1260;101323;-82
2024/02/02 12:56:38;;;;;;;15.90;5.20;;;;;;;5.87;57.59;97922.77;104749;1258;99569;-75
2024/02/02 12:59:10;;;;;;;20.90;6.10;;;;;;;6.19;57.60;97921.02;104798;1261;96687;-75
2024/02/02 13:01:38;;;;;;;14.50;4.60;;;;;;;6.56;57.21;97919.33;104766;1259;96240;-83
2024/02/02 13:04:06;;;;;;;13.90;4.20;;;;;;;6.83;56.88;97912.06;104712;1270;100782;-83
2024/02/02 13:06:34;;;;;;;16.90;4.50;;;;;;;7.09;56.22;97906.78;104702;1256;101018;-83
2024/02/02 13:09:40;;;;;;;17.30;5.70;;;;;;;7.25;55.39;97909.90;104649;1272;99153;-83
2024/02/02 13:12:08;;;;;;;15.00;4.70;;;;;;;7.39;55.01;97904.63;104375;1266;95978;-83
2024/02/02 13:14:37;;;;;;;12.20;3.80;;;;;;;7.35;53.80;97899.09;104656;1261;95871;-75
2024/02/02 13:17:06;;;;;;;14.10;4.60;;;;;;;7.21;54.35;97900.70;104751;1277;100178;-75
2024/02/02 13:19:45;;;;;;;12.30;3.70;;;;;;;7.12;54.35;97894.48;104831;1269;101382;-75
2024/02/02 13:22:19;;;;;;;17.10;5.50;;;;;;;7.06;54.09;97892.98;104756;1256;100435;-75
2024/02/02 13:24:50;;;;;;;26.90;8.30;;;;;;;7.00;53.42;97890.00;104730;1260;96864;-75
2024/02/02 13:27:19;;;;;;;19.60;6.90;;;;;;;6.93;52.67;97887.18;104782;1258;96804;-75
2024/02/02 13:29:52;;;;;;;23.40;7.50;;;;;;;6.85;52.73;97884.15;104801;1258;100659;-75